sensor_id;sensor_type;location;lat;lon;timestamp;P1;durP1;ratioP1;P2;durP2;ratioP2
52740;SDS011;38634;52.138;9.912;2022-09-09T00:00:26;7.95;;;2.95;;
52740;SDS011;38634;52.138;9.912;2022-09-09T00:03:37;7.10;;;2.60;;
52740;SDS011;38634;52.138;9.912;2022-09-09T00:06:53;7.38;;;2.75;;
52740;SDS011;38634;52.138;9.912;2022-09-09T00:09:47;6.80;;;2.60;;
52740;SDS011;38634;52.138;9.912;2022-09-09T00:21:43;3.13;;;2.30;;
52740;SDS011;38634;52.138;9.912;2022-09-09T00:24:42;5.22;;;2.67;;
52740;SDS011;38634;52.138;9.912;2022-09-09T00:30:22;10.80;;;3.27;;
52740;SDS011;38634;52.138;9.912;2022-09-09T00:33:11;7.22;;;2.38;;
52740;SDS011;38634;52.138;9.912;2022-09-09T00:35:58;9.77;;;2.88;;
52740;SDS011;38634;52.138;9.912;2022-09-09T00:38:45;8.00;;;2.80;;
52740;SDS011;38634;52.138;9.912;2022-09-09T00:47:46;7.43;;;2.88;;
52740;SDS011;38634;52.138;9.912;2022-09-09T00:57:18;6.63;;;2.72;;
52740;SDS011;38634;52.138;9.912;2022-09-09T01:03:34;3.20;;;1.75;;
52740;SDS011;38634;52.138;9.912;2022-09-09T01:06:35;8.60;;;3.03;;
52740;SDS011;38634;52.138;9.912;2022-09-09T01:09:30;6.90;;;2.92;;
52740;SDS011;38634;52.138;9.912;2022-09-09T01:12:37;9.05;;;3.08;;
52740;SDS011;38634;52.138;9.912;2022-09-09T01:15:28;8.13;;;2.72;;
52740;SDS011;38634;52.138;9.912;2022-09-09T01:18:15;9.05;;;3.22;;
52740;SDS011;38634;52.138;9.912;2022-09-09T01:27:16;6.82;;;2.72;;
52740;SDS011;38634;52.138;9.912;2022-09-09T01:30:15;7.53;;;2.90;;
52740;SDS011;38634;52.138;9.912;2022-09-09T01:33:01;7.35;;;2.72;;
52740;SDS011;38634;52.138;9.912;2022-09-09T01:38:52;6.15;;;2.60;;
52740;SDS011;38634;52.138;9.912;2022-09-09T01:41:38;8.75;;;3.20;;
52740;SDS011;38634;52.138;9.912;2022-09-09T01:44:23;7.35;;;2.92;;
52740;SDS011;38634;52.138;9.912;2022-09-09T01:47:08;8.50;;;2.92;;
52740;SDS011;38634;52.138;9.912;2022-09-09T01:49:53;6.55;;;2.70;;
52740;SDS011;38634;52.138;9.912;2022-09-09T01:52:38;6.45;;;2.50;;
52740;SDS011;38634;52.138;9.912;2022-09-09T01:55:33;7.32;;;2.63;;
52740;SDS011;38634;52.138;9.912;2022-09-09T02:05:04;7.47;;;3.15;;
52740;SDS011;38634;52.138;9.912;2022-09-09T02:08:18;7.05;;;2.85;;
52740;SDS011;38634;52.138;9.912;2022-09-09T02:11:15;6.53;;;2.35;;
52740;SDS011;38634;52.138;9.912;2022-09-09T02:14:01;5.13;;;2.45;;
52740;SDS011;38634;52.138;9.912;2022-09-09T02:17:00;6.88;;;3.20;;
52740;SDS011;38634;52.138;9.912;2022-09-09T02:19:52;6.78;;;2.95;;
52740;SDS011;38634;52.138;9.912;2022-09-09T02:22:56;6.07;;;2.70;;
52740;SDS011;38634;52.138;9.912;2022-09-09T02:25:41;8.13;;;3.35;;
52740;SDS011;38634;52.138;9.912;2022-09-09T02:28:26;6.47;;;2.85;;
52740;SDS011;38634;52.138;9.912;2022-09-09T02:31:14;9.23;;;3.13;;
52740;SDS011;38634;52.138;9.912;2022-09-09T02:34:02;7.18;;;3.08;;
52740;SDS011;38634;52.138;9.912;2022-09-09T02:36:48;6.32;;;2.83;;
52740;SDS011;38634;52.138;9.912;2022-09-09T02:39:33;7.32;;;2.92;;
52740;SDS011;38634;52.138;9.912;2022-09-09T02:42:18;6.70;;;3.08;;
52740;SDS011;38634;52.138;9.912;2022-09-09T02:45:02;4.38;;;2.30;;
52740;SDS011;38634;52.138;9.912;2022-09-09T02:47:50;5.60;;;2.42;;
52740;SDS011;38634;52.138;9.912;2022-09-09T11:51:00;25.88;;;5.53;;
52740;SDS011;38634;52.138;9.912;2022-09-09T11:53:57;11.55;;;3.25;;
52740;SDS011;38634;52.138;9.912;2022-09-09T11:56:48;31.90;;;7.40;;
52740;SDS011;38634;52.138;9.912;2022-09-09T11:59:33;22.95;;;5.32;;
52740;SDS011;38634;52.138;9.912;2022-09-09T12:02:19;14.85;;;3.85;;
52740;SDS011;38634;52.138;9.912;2022-09-09T12:05:11;38.00;;;8.30;;
52740;SDS011;38634;52.138;9.912;2022-09-09T12:07:58;20.70;;;5.35;;
52740;SDS011;38634;52.138;9.912;2022-09-09T12:10:52;13.00;;;3.55;;
52740;SDS011;38634;52.138;9.912;2022-09-09T12:13:41;36.67;;;8.27;;
52740;SDS011;38634;52.138;9.912;2022-09-09T12:16:40;24.70;;;5.75;;
52740;SDS011;38634;52.138;9.912;2022-09-09T12:19:26;26.35;;;7.07;;
52740;SDS011;38634;52.138;9.912;2022-09-09T12:28:55;19.80;;;5.57;;
52740;SDS011;38634;52.138;9.912;2022-09-09T12:32:06;30.67;;;7.85;;
52740;SDS011;38634;52.138;9.912;2022-09-09T12:38:04;26.55;;;5.30;;
52740;SDS011;38634;52.138;9.912;2022-09-09T12:40:57;15.20;;;3.75;;
52740;SDS011;38634;52.138;9.912;2022-09-09T12:43:42;37.10;;;7.80;;
52740;SDS011;38634;52.138;9.912;2022-09-09T12:46:32;29.30;;;6.15;;
52740;SDS011;38634;52.138;9.912;2022-09-09T12:49:35;28.33;;;6.38;;
52740;SDS011;38634;52.138;9.912;2022-09-09T12:52:25;19.75;;;5.10;;
52740;SDS011;38634;52.138;9.912;2022-09-09T12:55:25;47.63;;;8.43;;
52740;SDS011;38634;52.138;9.912;2022-09-09T12:58:13;25.85;;;5.20;;
52740;SDS011;38634;52.138;9.912;2022-09-09T13:01:02;50.53;;;9.15;;
52740;SDS011;38634;52.138;9.912;2022-09-09T13:03:48;45.88;;;8.60;;
52740;SDS011;38634;52.138;9.912;2022-09-09T13:06:33;18.10;;;3.67;;
52740;SDS011;38634;52.138;9.912;2022-09-09T13:09:18;23.17;;;4.53;;
52740;SDS011;38634;52.138;9.912;2022-09-09T13:12:03;43.45;;;7.68;;
52740;SDS011;38634;52.138;9.912;2022-09-09T13:14:51;39.42;;;8.05;;
52740;SDS011;38634;52.138;9.912;2022-09-09T13:17:38;22.42;;;5.13;;
52740;SDS011;38634;52.138;9.912;2022-09-09T13:20:24;16.20;;;3.88;;
52740;SDS011;38634;52.138;9.912;2022-09-09T13:23:09;26.35;;;6.00;;
52740;SDS011;38634;52.138;9.912;2022-09-09T13:26:00;35.15;;;7.57;;
52740;SDS011;38634;52.138;9.912;2022-09-09T13:28:51;17.50;;;4.32;;
52740;SDS011;38634;52.138;9.912;2022-09-09T13:31:37;33.17;;;7.70;;
52740;SDS011;38634;52.138;9.912;2022-09-09T13:34:25;33.58;;;7.13;;
52740;SDS011;38634;52.138;9.912;2022-09-09T13:37:48;17.23;;;3.97;;
52740;SDS011;38634;52.138;9.912;2022-09-09T13:40:26;16.25;;;4.22;;
52740;SDS011;38634;52.138;9.912;2022-09-09T13:43:16;28.67;;;6.28;;
52740;SDS011;38634;52.138;9.912;2022-09-09T13:46:21;30.38;;;6.88;;
52740;SDS011;38634;52.138;9.912;2022-09-09T13:49:22;24.35;;;5.45;;
52740;SDS011;38634;52.138;9.912;2022-09-09T13:55:00;42.97;;;7.75;;
52740;SDS011;38634;52.138;9.912;2022-09-09T13:58:01;20.85;;;4.70;;
52740;SDS011;38634;52.138;9.912;2022-09-09T14:00:48;38.08;;;7.18;;
52740;SDS011;38634;52.138;9.912;2022-09-09T14:03:33;19.48;;;4.40;;
52740;SDS011;38634;52.138;9.912;2022-09-09T14:06:18;35.28;;;4.55;;
52740;SDS011;38634;52.138;9.912;2022-09-09T14:09:02;44.42;;;9.00;;
52740;SDS011;38634;52.138;9.912;2022-09-09T14:11:47;47.70;;;9.13;;
52740;SDS011;38634;52.138;9.912;2022-09-09T14:14:32;27.80;;;5.55;;
52740;SDS011;38634;52.138;9.912;2022-09-09T14:17:17;18.50;;;3.83;;
52740;SDS011;38634;52.138;9.912;2022-09-09T14:20:05;24.70;;;4.93;;
52740;SDS011;38634;52.138;9.912;2022-09-09T14:22:53;37.97;;;7.18;;
52740;SDS011;38634;52.138;9.912;2022-09-09T14:25:39;24.20;;;5.22;;
52740;SDS011;38634;52.138;9.912;2022-09-09T14:28:25;20.65;;;4.22;;
52740;SDS011;38634;52.138;9.912;2022-09-09T14:31:09;30.35;;;6.95;;
52740;SDS011;38634;52.138;9.912;2022-09-09T14:33:54;30.05;;;6.82;;
52740;SDS011;38634;52.138;9.912;2022-09-09T14:36:39;25.83;;;5.38;;
52740;SDS011;38634;52.138;9.912;2022-09-09T14:39:25;6.30;;;2.22;;
52740;SDS011;38634;52.138;9.912;2022-09-09T14:42:10;12.05;;;3.70;;
52740;SDS011;38634;52.138;9.912;2022-09-09T14:44:55;17.05;;;5.53;;
52740;SDS011;38634;52.138;9.912;2022-09-09T14:47:40;15.20;;;5.10;;
52740;SDS011;38634;52.138;9.912;2022-09-09T14:50:24;6.82;;;2.55;;
52740;SDS011;38634;52.138;9.912;2022-09-09T14:53:09;7.32;;;2.53;;
52740;SDS011;38634;52.138;9.912;2022-09-09T14:56:02;13.37;;;4.83;;
52740;SDS011;38634;52.138;9.912;2022-09-09T14:58:52;9.02;;;2.97;;
52740;SDS011;38634;52.138;9.912;2022-09-09T15:01:39;12.52;;;3.45;;
52740;SDS011;38634;52.138;9.912;2022-09-09T15:04:23;17.73;;;5.90;;
52740;SDS011;38634;52.138;9.912;2022-09-09T15:07:08;18.00;;;5.53;;
52740;SDS011;38634;52.138;9.912;2022-09-09T15:09:54;6.57;;;2.63;;
52740;SDS011;38634;52.138;9.912;2022-09-09T15:12:39;6.90;;;2.72;;
52740;SDS011;38634;52.138;9.912;2022-09-09T15:15:25;4.93;;;2.17;;
52740;SDS011;38634;52.138;9.912;2022-09-09T15:18:10;6.55;;;1.98;;
52740;SDS011;38634;52.138;9.912;2022-09-09T15:20:56;11.77;;;3.40;;
52740;SDS011;38634;52.138;9.912;2022-09-09T15:23:42;14.82;;;4.88;;
52740;SDS011;38634;52.138;9.912;2022-09-09T15:26:27;13.73;;;4.72;;
52740;SDS011;38634;52.138;9.912;2022-09-09T15:29:13;9.05;;;3.45;;
52740;SDS011;38634;52.138;9.912;2022-09-09T15:31:58;9.52;;;3.08;;
52740;SDS011;38634;52.138;9.912;2022-09-09T15:34:43;6.13;;;2.55;;
52740;SDS011;38634;52.138;9.912;2022-09-09T15:37:28;17.52;;;5.80;;
52740;SDS011;38634;52.138;9.912;2022-09-09T15:40:12;15.15;;;5.43;;
52740;SDS011;38634;52.138;9.912;2022-09-09T15:42:58;10.05;;;3.38;;
52740;SDS011;38634;52.138;9.912;2022-09-09T15:45:43;6.00;;;2.40;;
52740;SDS011;38634;52.138;9.912;2022-09-09T15:48:31;13.32;;;4.38;;
52740;SDS011;38634;52.138;9.912;2022-09-09T15:51:18;7.03;;;2.30;;
52740;SDS011;38634;52.138;9.912;2022-09-09T15:54:03;6.20;;;1.90;;
52740;SDS011;38634;52.138;9.912;2022-09-09T15:56:50;7.78;;;2.08;;
52740;SDS011;38634;52.138;9.912;2022-09-09T15:59:40;5.22;;;1.90;;
52740;SDS011;38634;52.138;9.912;2022-09-09T16:02:24;6.72;;;2.13;;
52740;SDS011;38634;52.138;9.912;2022-09-09T16:05:09;6.63;;;2.22;;
52740;SDS011;38634;52.138;9.912;2022-09-09T16:07:54;3.30;;;1.40;;
52740;SDS011;38634;52.138;9.912;2022-09-09T16:10:38;5.30;;;1.85;;
52740;SDS011;38634;52.138;9.912;2022-09-09T16:13:23;14.40;;;5.18;;
52740;SDS011;38634;52.138;9.912;2022-09-09T16:16:12;17.10;;;4.38;;
52740;SDS011;38634;52.138;9.912;2022-09-09T16:18:58;19.98;;;5.20;;
52740;SDS011;38634;52.138;9.912;2022-09-09T16:21:48;35.42;;;6.90;;
52740;SDS011;38634;52.138;9.912;2022-09-09T16:24:33;21.63;;;6.10;;
52740;SDS011;38634;52.138;9.912;2022-09-09T16:27:18;18.40;;;4.78;;
52740;SDS011;38634;52.138;9.912;2022-09-09T16:30:03;22.77;;;5.60;;
52740;SDS011;38634;52.138;9.912;2022-09-09T16:32:47;28.08;;;6.15;;
52740;SDS011;38634;52.138;9.912;2022-09-09T16:35:35;33.95;;;7.45;;
52740;SDS011;38634;52.138;9.912;2022-09-09T16:38:22;14.32;;;4.43;;
52740;SDS011;38634;52.138;9.912;2022-09-09T16:41:07;21.13;;;5.80;;
52740;SDS011;38634;52.138;9.912;2022-09-09T16:43:58;24.70;;;5.53;;
52740;SDS011;38634;52.138;9.912;2022-09-09T16:46:48;11.30;;;2.55;;
52740;SDS011;38634;52.138;9.912;2022-09-09T16:49:35;6.72;;;2.00;;
52740;SDS011;38634;52.138;9.912;2022-09-09T16:52:20;6.85;;;2.22;;
52740;SDS011;38634;52.138;9.912;2022-09-09T16:55:05;5.97;;;2.08;;
52740;SDS011;38634;52.138;9.912;2022-09-09T16:57:50;5.72;;;1.85;;
52740;SDS011;38634;52.138;9.912;2022-09-09T17:00:35;6.63;;;2.13;;
52740;SDS011;38634;52.138;9.912;2022-09-09T17:03:19;6.50;;;2.00;;
52740;SDS011;38634;52.138;9.912;2022-09-09T17:06:08;5.32;;;2.03;;
52740;SDS011;38634;52.138;9.912;2022-09-09T17:08:59;6.70;;;2.38;;
52740;SDS011;38634;52.138;9.912;2022-09-09T17:11:47;8.88;;;2.30;;
52740;SDS011;38634;52.138;9.912;2022-09-09T17:14:34;13.25;;;4.85;;
52740;SDS011;38634;52.138;9.912;2022-09-09T17:17:19;21.50;;;5.32;;
52740;SDS011;38634;52.138;9.912;2022-09-09T17:20:04;36.00;;;7.95;;
52740;SDS011;38634;52.138;9.912;2022-09-09T17:22:50;24.27;;;5.70;;
52740;SDS011;38634;52.138;9.912;2022-09-09T17:25:35;13.48;;;3.30;;
52740;SDS011;38634;52.138;9.912;2022-09-09T17:28:21;8.65;;;2.15;;
52740;SDS011;38634;52.138;9.912;2022-09-09T17:31:10;8.35;;;2.72;;
52740;SDS011;38634;52.138;9.912;2022-09-09T17:33:57;9.02;;;2.38;;
52740;SDS011;38634;52.138;9.912;2022-09-09T17:36:42;8.27;;;2.30;;
52740;SDS011;38634;52.138;9.912;2022-09-09T17:39:27;9.18;;;2.42;;
52740;SDS011;38634;52.138;9.912;2022-09-09T17:42:12;7.40;;;2.25;;
52740;SDS011;38634;52.138;9.912;2022-09-09T17:44:58;9.23;;;2.35;;
52740;SDS011;38634;52.138;9.912;2022-09-09T17:47:42;7.93;;;2.13;;
52740;SDS011;38634;52.138;9.912;2022-09-09T17:50:28;11.25;;;2.70;;
52740;SDS011;38634;52.138;9.912;2022-09-09T17:53:13;4.65;;;1.88;;
52740;SDS011;38634;52.138;9.912;2022-09-09T17:56:04;2.70;;;1.73;;
52740;SDS011;38634;52.138;9.912;2022-09-09T17:58:51;3.85;;;1.98;;
52740;SDS011;38634;52.138;9.912;2022-09-09T18:01:37;2.30;;;1.75;;
52740;SDS011;38634;52.138;9.912;2022-09-09T18:04:25;3.22;;;1.58;;
52740;SDS011;38634;52.138;9.912;2022-09-09T18:07:09;5.65;;;2.25;;
52740;SDS011;38634;52.138;9.912;2022-09-09T18:09:54;4.10;;;1.88;;
52740;SDS011;38634;52.138;9.912;2022-09-09T18:12:38;6.82;;;2.40;;
52740;SDS011;38634;52.138;9.912;2022-09-09T18:15:23;5.60;;;1.80;;
52740;SDS011;38634;52.138;9.912;2022-09-09T18:18:08;7.40;;;2.38;;
52740;SDS011;38634;52.138;9.912;2022-09-09T18:20:57;7.75;;;2.60;;
52740;SDS011;38634;52.138;9.912;2022-09-09T18:23:49;3.08;;;1.75;;
52740;SDS011;38634;52.138;9.912;2022-09-09T18:26:35;1.92;;;1.60;;
52740;SDS011;38634;52.138;9.912;2022-09-09T18:29:22;4.80;;;1.80;;
52740;SDS011;38634;52.138;9.912;2022-09-09T18:32:08;7.45;;;2.22;;
52740;SDS011;38634;52.138;9.912;2022-09-09T18:34:52;8.18;;;2.50;;
52740;SDS011;38634;52.138;9.912;2022-09-09T18:37:39;11.25;;;3.17;;
52740;SDS011;38634;52.138;9.912;2022-09-09T18:40:23;9.57;;;2.90;;
52740;SDS011;38634;52.138;9.912;2022-09-09T18:43:08;6.93;;;2.30;;
52740;SDS011;38634;52.138;9.912;2022-09-09T18:45:54;7.93;;;2.17;;
52740;SDS011;38634;52.138;9.912;2022-09-09T18:48:39;5.15;;;1.70;;
52740;SDS011;38634;52.138;9.912;2022-09-09T18:51:24;13.45;;;4.25;;
52740;SDS011;38634;52.138;9.912;2022-09-09T18:54:13;3.53;;;1.98;;
52740;SDS011;38634;52.138;9.912;2022-09-09T18:57:07;5.80;;;2.20;;
52740;SDS011;38634;52.138;9.912;2022-09-09T18:59:52;6.50;;;2.03;;
52740;SDS011;38634;52.138;9.912;2022-09-09T19:02:38;6.28;;;2.10;;
52740;SDS011;38634;52.138;9.912;2022-09-09T19:05:23;4.00;;;2.78;;
52740;SDS011;38634;52.138;9.912;2022-09-09T19:08:07;9.43;;;2.47;;
52740;SDS011;38634;52.138;9.912;2022-09-09T19:10:52;8.63;;;2.35;;
52740;SDS011;38634;52.138;9.912;2022-09-09T19:13:37;7.95;;;2.40;;
52740;SDS011;38634;52.138;9.912;2022-09-09T19:16:23;5.47;;;1.92;;
52740;SDS011;38634;52.138;9.912;2022-09-09T19:19:17;3.95;;;1.52;;
52740;SDS011;38634;52.138;9.912;2022-09-09T19:22:07;9.65;;;2.55;;
52740;SDS011;38634;52.138;9.912;2022-09-09T19:24:54;9.70;;;2.85;;
52740;SDS011;38634;52.138;9.912;2022-09-09T19:27:41;7.60;;;2.05;;
52740;SDS011;38634;52.138;9.912;2022-09-09T19:30:25;9.60;;;2.42;;
52740;SDS011;38634;52.138;9.912;2022-09-09T19:33:10;2.10;;;1.40;;
52740;SDS011;38634;52.138;9.912;2022-09-09T19:35:55;3.67;;;1.92;;
52740;SDS011;38634;52.138;9.912;2022-09-09T19:38:46;4.13;;;1.85;;
52740;SDS011;38634;52.138;9.912;2022-09-09T19:41:31;7.40;;;3.10;;
52740;SDS011;38634;52.138;9.912;2022-09-09T19:44:16;2.08;;;1.40;;
52740;SDS011;38634;52.138;9.912;2022-09-09T19:47:01;11.80;;;2.65;;
52740;SDS011;38634;52.138;9.912;2022-09-09T19:49:46;9.82;;;2.47;;
52740;SDS011;38634;52.138;9.912;2022-09-09T19:52:30;8.27;;;2.35;;
52740;SDS011;38634;52.138;9.912;2022-09-09T19:55:15;10.75;;;2.85;;
52740;SDS011;38634;52.138;9.912;2022-09-09T19:58:00;14.07;;;2.95;;
52740;SDS011;38634;52.138;9.912;2022-09-09T20:00:44;5.82;;;2.10;;
52740;SDS011;38634;52.138;9.912;2022-09-09T20:03:29;8.90;;;2.33;;
52740;SDS011;38634;52.138;9.912;2022-09-09T20:06:16;5.53;;;2.13;;
52740;SDS011;38634;52.138;9.912;2022-09-09T20:09:03;6.25;;;2.40;;
52740;SDS011;38634;52.138;9.912;2022-09-09T20:11:50;6.68;;;2.42;;
52740;SDS011;38634;52.138;9.912;2022-09-09T20:14:36;5.38;;;2.50;;
52740;SDS011;38634;52.138;9.912;2022-09-09T20:17:20;4.45;;;1.80;;
52740;SDS011;38634;52.138;9.912;2022-09-09T20:20:06;8.27;;;3.35;;
52740;SDS011;38634;52.138;9.912;2022-09-09T20:22:51;4.68;;;2.00;;
52740;SDS011;38634;52.138;9.912;2022-09-09T20:25:36;9.45;;;2.70;;
52740;SDS011;38634;52.138;9.912;2022-09-09T20:28:21;10.15;;;2.72;;
52740;SDS011;38634;52.138;9.912;2022-09-09T20:31:07;3.78;;;1.88;;
52740;SDS011;38634;52.138;9.912;2022-09-09T20:33:57;8.70;;;2.70;;
52740;SDS011;38634;52.138;9.912;2022-09-09T20:36:42;7.95;;;2.33;;
52740;SDS011;38634;52.138;9.912;2022-09-09T20:39:27;9.15;;;2.45;;
52740;SDS011;38634;52.138;9.912;2022-09-09T20:42:13;9.30;;;2.38;;
52740;SDS011;38634;52.138;9.912;2022-09-09T20:44:58;7.82;;;2.60;;
52740;SDS011;38634;52.138;9.912;2022-09-09T20:47:42;5.05;;;2.28;;
52740;SDS011;38634;52.138;9.912;2022-09-09T20:50:27;6.15;;;2.60;;
52740;SDS011;38634;52.138;9.912;2022-09-09T20:53:11;5.60;;;2.30;;
52740;SDS011;38634;52.138;9.912;2022-09-09T20:56:00;4.35;;;2.03;;
52740;SDS011;38634;52.138;9.912;2022-09-09T20:58:45;7.13;;;2.40;;
52740;SDS011;38634;52.138;9.912;2022-09-09T21:01:30;4.90;;;1.80;;
52740;SDS011;38634;52.138;9.912;2022-09-09T21:04:15;5.65;;;2.60;;
52740;SDS011;38634;52.138;9.912;2022-09-09T21:07:01;5.03;;;2.00;;
52740;SDS011;38634;52.138;9.912;2022-09-09T21:09:47;6.15;;;2.67;;
52740;SDS011;38634;52.138;9.912;2022-09-09T21:12:31;5.20;;;2.28;;
52740;SDS011;38634;52.138;9.912;2022-09-09T21:15:16;4.85;;;2.22;;
52740;SDS011;38634;52.138;9.912;2022-09-09T21:18:00;5.55;;;2.40;;
52740;SDS011;38634;52.138;9.912;2022-09-09T21:20:45;5.82;;;2.65;;
52740;SDS011;38634;52.138;9.912;2022-09-09T21:23:29;4.82;;;2.40;;
52740;SDS011;38634;52.138;9.912;2022-09-09T21:26:14;5.82;;;2.53;;
52740;SDS011;38634;52.138;9.912;2022-09-09T21:29:03;3.30;;;1.65;;
52740;SDS011;38634;52.138;9.912;2022-09-09T21:31:48;4.82;;;2.47;;
52740;SDS011;38634;52.138;9.912;2022-09-09T21:34:33;5.55;;;2.58;;
52740;SDS011;38634;52.138;9.912;2022-09-09T21:37:18;4.53;;;2.28;;
52740;SDS011;38634;52.138;9.912;2022-09-09T21:40:03;3.47;;;2.10;;
52740;SDS011;38634;52.138;9.912;2022-09-09T21:42:48;3.13;;;2.05;;
52740;SDS011;38634;52.138;9.912;2022-09-09T21:45:36;4.00;;;2.20;;
52740;SDS011;38634;52.138;9.912;2022-09-09T21:48:22;3.83;;;2.13;;
52740;SDS011;38634;52.138;9.912;2022-09-09T21:51:09;3.75;;;2.13;;
52740;SDS011;38634;52.138;9.912;2022-09-09T21:53:59;4.45;;;2.20;;
52740;SDS011;38634;52.138;9.912;2022-09-09T21:56:43;6.85;;;2.95;;
52740;SDS011;38634;52.138;9.912;2022-09-09T21:59:28;4.53;;;2.35;;
52740;SDS011;38634;52.138;9.912;2022-09-09T22:02:14;4.80;;;2.25;;
52740;SDS011;38634;52.138;9.912;2022-09-09T22:04:59;5.43;;;2.50;;
52740;SDS011;38634;52.138;9.912;2022-09-09T22:07:44;5.10;;;2.45;;
52740;SDS011;38634;52.138;9.912;2022-09-09T22:10:28;5.90;;;2.72;;
52740;SDS011;38634;52.138;9.912;2022-09-09T22:13:13;3.88;;;2.38;;
52740;SDS011;38634;52.138;9.912;2022-09-09T22:16:00;3.28;;;2.22;;
52740;SDS011;38634;52.138;9.912;2022-09-09T22:18:51;3.88;;;2.70;;
52740;SDS011;38634;52.138;9.912;2022-09-09T22:21:39;5.20;;;2.60;;
52740;SDS011;38634;52.138;9.912;2022-09-09T22:24:24;3.53;;;2.17;;
52740;SDS011;38634;52.138;9.912;2022-09-09T22:27:10;3.35;;;2.00;;
52740;SDS011;38634;52.138;9.912;2022-09-09T22:29:56;4.40;;;2.17;;
52740;SDS011;38634;52.138;9.912;2022-09-09T22:32:40;3.30;;;2.25;;
52740;SDS011;38634;52.138;9.912;2022-09-09T22:35:25;5.38;;;2.70;;
52740;SDS011;38634;52.138;9.912;2022-09-09T22:38:10;3.90;;;2.38;;
52740;SDS011;38634;52.138;9.912;2022-09-09T22:40:55;3.60;;;2.28;;
52740;SDS011;38634;52.138;9.912;2022-09-09T22:43:41;2.75;;;2.20;;
52740;SDS011;38634;52.138;9.912;2022-09-09T22:46:26;2.75;;;1.83;;
52740;SDS011;38634;52.138;9.912;2022-09-09T22:49:11;3.13;;;1.92;;
52740;SDS011;38634;52.138;9.912;2022-09-09T22:51:55;3.97;;;2.20;;
52740;SDS011;38634;52.138;9.912;2022-09-09T22:54:40;3.65;;;2.22;;
52740;SDS011;38634;52.138;9.912;2022-09-09T22:57:25;4.90;;;2.58;;
52740;SDS011;38634;52.138;9.912;2022-09-09T23:00:10;4.60;;;1.92;;
52740;SDS011;38634;52.138;9.912;2022-09-09T23:02:56;3.95;;;2.10;;
52740;SDS011;38634;52.138;9.912;2022-09-09T23:05:41;4.03;;;2.38;;
52740;SDS011;38634;52.138;9.912;2022-09-09T23:08:36;3.75;;;2.15;;
52740;SDS011;38634;52.138;9.912;2022-09-09T23:11:21;5.53;;;2.58;;
52740;SDS011;38634;52.138;9.912;2022-09-09T23:14:10;5.35;;;2.97;;
52740;SDS011;38634;52.138;9.912;2022-09-09T23:16:55;5.32;;;2.30;;
52740;SDS011;38634;52.138;9.912;2022-09-09T23:19:40;4.57;;;2.45;;
52740;SDS011;38634;52.138;9.912;2022-09-09T23:22:25;4.78;;;2.30;;
52740;SDS011;38634;52.138;9.912;2022-09-09T23:25:10;4.47;;;2.42;;
52740;SDS011;38634;52.138;9.912;2022-09-09T23:27:55;4.97;;;2.65;;
52740;SDS011;38634;52.138;9.912;2022-09-09T23:30:41;5.45;;;2.97;;
52740;SDS011;38634;52.138;9.912;2022-09-09T23:33:26;5.45;;;2.53;;
52740;SDS011;38634;52.138;9.912;2022-09-09T23:36:12;6.07;;;2.75;;
52740;SDS011;38634;52.138;9.912;2022-09-09T23:39:00;4.63;;;2.33;;
52740;SDS011;38634;52.138;9.912;2022-09-09T23:41:47;3.50;;;2.30;;
52740;SDS011;38634;52.138;9.912;2022-09-09T23:44:36;3.25;;;2.00;;
52740;SDS011;38634;52.138;9.912;2022-09-09T23:47:22;2.97;;;1.90;;
52740;SDS011;38634;52.138;9.912;2022-09-09T23:50:06;3.33;;;2.00;;
52740;SDS011;38634;52.138;9.912;2022-09-09T23:52:52;2.45;;;2.25;;
52740;SDS011;38634;52.138;9.912;2022-09-09T23:55:37;1.83;;;1.70;;
52740;SDS011;38634;52.138;9.912;2022-09-09T23:58:22;3.47;;;2.33;;
